Weather at Tassiga Airport

Public forecast

Using degrees Celsius for public forecast. Weather courtesy of forecast.io.

Closest aviation weather report (METAR) to Tassiga Airport

Report is more than 6 hours old.

Closest report is Gao Airport, 61.1 nm (113.2 km) NW.

2024/07/24 16:00 (retrieved 14 hours ago)

GAGO 241600Z 26008KT CAVOK 37/23 Q1010 NOSIG

Closest aviation forecast (TAF) to Tassiga Airport

Closest forecast is Mano Dayak International Airport, 428.9 nm (794.3 km) ENE.

2024/07/25 06:21 Correction (retrieved 0 seconds ago)

TAF COR DRZA 250500Z 2506/2606 26010KT 8000 FEW040 PROB40 TEMPO 2514/2520 VRB25KT 1200 SQ BLDU TS SCT040 FEW045CB